Terminal Aerodrome Forecast
Issued by NWS Shreveport, LA

Home | Current Version | Previous Version | Text Only | Print | Product List | Glossary On
Versions: 1 2 3 4 5 6 7 8 9 10 11 12 13 14 15 16 17
817
FTUS44 KSHV 212346
TAFGGG
TAF
KGGG 212346Z 2200/2224 23010KT P6SM VCTS SCT030 SCT050CB BKN250
      TEMPO 2202/2206 5SM -TSRA BR BKN045CB OVC120
     FM220600 21011KT P6SM SCT035 BKN120
     FM221500 28012G25KT P6SM BKN120 BKN250=

USA.gov is the U.S. government's official web portal to all federal, state and local government web resources and services.